createdAt,value
2023-04-05T00:00:08.376Z,5.47
2023-04-05T00:02:37.094Z,5.95
2023-04-05T00:05:05.467Z,5.00
2023-04-05T00:07:34.166Z,7.07
2023-04-05T00:10:02.100Z,4.82
2023-04-05T00:12:29.576Z,4.18
2023-04-05T00:14:57.175Z,4.88
2023-04-05T00:17:25.010Z,4.05
2023-04-05T00:19:57.225Z,4.25
2023-04-05T00:22:26.427Z,4.72
2023-04-05T00:24:53.981Z,5.35
2023-04-05T00:27:21.703Z,5.60
2023-04-05T00:29:49.185Z,4.90
2023-04-05T00:32:16.966Z,4.68
2023-04-05T00:34:44.525Z,4.28
2023-04-05T00:37:12.771Z,4.38
2023-04-05T00:39:40.803Z,5.55
2023-04-05T00:42:09.100Z,4.55
2023-04-05T00:44:36.915Z,4.75
2023-04-05T00:47:08.459Z,5.32
2023-04-05T00:49:37.012Z,6.00
2023-04-05T00:52:04.967Z,4.75
2023-04-05T00:54:32.888Z,4.25
2023-04-05T00:57:01.362Z,4.95
2023-04-05T00:59:29.973Z,5.57
2023-04-05T01:02:02.722Z,4.50
2023-04-05T01:04:33.700Z,5.13
2023-04-05T01:07:14.113Z,4.88
2023-04-05T01:09:46.094Z,5.03
2023-04-05T01:12:18.607Z,4.57
2023-04-05T01:14:56.634Z,4.57
2023-04-05T01:17:28.265Z,4.95
2023-04-05T01:19:59.415Z,3.63
2023-04-05T01:22:54.635Z,4.95
2023-04-05T01:25:41.566Z,6.22
2023-04-05T01:28:36.059Z,5.20
2023-04-05T01:31:13.513Z,5.30
2023-04-05T01:33:53.827Z,3.85
2023-04-05T01:36:28.032Z,4.32
2023-04-05T01:38:57.032Z,5.03
2023-04-05T01:41:24.766Z,3.92
2023-04-05T01:43:52.308Z,4.25
2023-04-05T01:46:19.878Z,3.85
2023-04-05T01:48:47.389Z,4.70
2023-04-05T01:51:14.975Z,4.05
2023-04-05T01:53:42.528Z,4.75
2023-04-05T01:56:09.987Z,4.40
2023-04-05T01:58:37.578Z,5.60
2023-04-05T02:01:05.337Z,5.15
2023-04-05T02:03:32.972Z,4.45
2023-04-05T02:06:00.754Z,3.50
2023-04-05T02:08:28.268Z,4.22
2023-04-05T02:10:55.834Z,4.32
2023-04-05T02:13:23.770Z,4.55
2023-04-05T02:15:51.690Z,5.40
2023-04-05T02:18:21.881Z,4.50
2023-04-05T02:20:53.011Z,3.88
2023-04-05T02:23:21.338Z,4.25
2023-04-05T02:25:48.865Z,4.63
2023-04-05T02:28:16.430Z,4.47
2023-04-05T02:30:44.104Z,4.15
2023-04-05T02:33:12.604Z,5.10
2023-04-05T02:35:40.191Z,5.07
2023-04-05T02:38:07.958Z,4.13
2023-04-05T02:40:35.636Z,5.28
2023-04-05T02:43:03.585Z,5.05
2023-04-05T02:45:31.572Z,5.65
2023-04-05T02:47:59.113Z,5.72
2023-04-05T02:50:26.687Z,5.00
2023-04-05T02:52:55.008Z,5.68
2023-04-05T02:55:22.546Z,4.90
2023-04-05T02:57:50.035Z,4.78
2023-04-05T03:00:18.842Z,5.25
2023-04-05T03:02:46.389Z,4.95
2023-04-05T03:05:14.056Z,4.25
2023-04-05T03:07:42.720Z,4.70
2023-04-05T03:10:10.538Z,5.20
2023-04-05T03:12:38.080Z,4.68
2023-04-05T03:15:06.825Z,3.72
2023-04-05T03:17:34.357Z,4.30
2023-04-05T03:20:08.865Z,5.60
2023-04-05T03:22:36.309Z,4.28
2023-04-05T03:25:04.073Z,4.32
2023-04-05T03:27:32.025Z,4.53
2023-04-05T03:29:59.551Z,4.20
2023-04-05T03:32:27.152Z,4.43
2023-04-05T03:34:54.748Z,5.40
2023-04-05T03:37:22.220Z,5.15
2023-04-05T03:39:49.733Z,4.53
2023-04-05T03:42:17.976Z,4.30
2023-04-05T03:44:45.575Z,5.15
2023-04-05T03:47:13.151Z,4.75
2023-04-05T03:49:41.107Z,3.88
2023-04-05T03:52:09.588Z,4.25
2023-04-05T03:54:37.141Z,4.97
2023-04-05T03:57:04.811Z,5.25
2023-04-05T03:59:32.453Z,4.22
2023-04-05T04:02:00.156Z,5.43
2023-04-05T04:04:28.130Z,5.07
2023-04-05T04:06:56.399Z,6.10
2023-04-05T04:09:24.065Z,5.03
2023-04-05T04:11:51.543Z,5.38
2023-04-05T04:14:19.142Z,5.53
2023-04-05T04:16:46.662Z,4.82
2023-04-05T04:19:14.360Z,6.22
2023-04-05T04:21:51.842Z,6.00
2023-04-05T04:24:20.353Z,5.72
2023-04-05T04:26:48.450Z,5.28
2023-04-05T04:29:17.247Z,4.90
2023-04-05T04:31:48.554Z,4.57
2023-04-05T04:34:18.737Z,4.03
2023-04-05T04:36:48.206Z,5.88
2023-04-05T04:39:15.990Z,5.05
2023-04-05T04:41:47.074Z,5.45
2023-04-05T04:44:15.184Z,5.20
2023-04-05T04:46:43.953Z,6.13
2023-04-05T04:49:13.405Z,4.97
2023-04-05T04:51:41.012Z,4.55
2023-04-05T04:54:08.592Z,5.57
2023-04-05T04:56:36.309Z,4.75
2023-04-05T04:59:03.870Z,6.32
2023-04-05T05:01:31.811Z,7.03
2023-04-05T05:03:59.530Z,7.15
2023-04-05T05:06:27.277Z,5.68
2023-04-05T05:08:56.375Z,5.60
2023-04-05T05:11:23.902Z,6.22
2023-04-05T05:13:53.316Z,6.50
2023-04-05T05:16:21.753Z,7.22
2023-04-05T05:18:49.331Z,6.45
2023-04-05T05:21:16.825Z,6.85
2023-04-05T05:23:44.404Z,6.38
2023-04-05T05:26:13.002Z,6.10
2023-04-05T05:28:40.572Z,6.28
2023-04-05T05:31:08.215Z,6.57
2023-04-05T05:33:35.773Z,6.63
2023-04-05T05:36:04.035Z,5.88
2023-04-05T05:38:31.918Z,5.80
2023-04-05T05:40:59.614Z,6.03
2023-04-05T05:43:27.114Z,6.43
2023-04-05T05:45:54.685Z,7.50
2023-04-05T05:48:22.234Z,7.30
2023-04-05T05:50:50.506Z,5.70
2023-04-05T05:53:18.039Z,6.85
2023-04-05T05:55:45.699Z,6.07
2023-04-05T05:58:13.268Z,6.18
2023-04-05T06:00:41.029Z,6.38
2023-04-05T06:03:09.927Z,7.28
2023-04-05T06:05:37.782Z,11.70
2023-04-05T06:08:05.657Z,6.78
2023-04-05T06:10:33.279Z,6.50
2023-04-05T06:13:00.797Z,7.03
2023-04-05T06:15:28.408Z,6.70
2023-04-05T06:17:55.988Z,5.28
2023-04-05T06:20:23.557Z,6.53
2023-04-05T06:22:51.218Z,6.85
2023-04-05T06:25:18.965Z,6.45
2023-04-05T06:27:46.544Z,5.72
2023-04-05T06:30:14.665Z,6.63
2023-04-05T06:32:42.375Z,6.72
2023-04-05T06:35:10.344Z,5.20
2023-04-05T06:37:37.933Z,5.85
2023-04-05T06:40:06.010Z,6.88
2023-04-05T06:42:33.574Z,4.78
2023-04-05T06:45:01.218Z,5.20
2023-04-05T06:47:28.773Z,5.05
2023-04-05T06:49:56.446Z,5.15
2023-04-05T06:52:23.953Z,5.15
2023-04-05T06:54:51.508Z,5.30
2023-04-05T06:57:19.676Z,5.07
2023-04-05T06:59:47.189Z,4.95
2023-04-05T07:02:14.889Z,4.15
2023-04-05T07:04:42.428Z,5.15
2023-04-05T07:07:10.213Z,3.47
2023-04-05T07:09:39.601Z,3.85
2023-04-05T07:12:09.402Z,4.53
2023-04-05T07:14:38.596Z,4.18
2023-04-05T07:17:07.631Z,5.85
2023-04-05T07:19:35.575Z,4.95
2023-04-05T07:22:03.287Z,3.85
2023-04-05T07:24:30.972Z,4.57
2023-04-05T07:26:58.644Z,4.95
2023-04-05T07:29:26.507Z,4.68
2023-04-05T07:31:54.105Z,5.00
2023-04-05T07:34:21.798Z,5.55
2023-04-05T07:36:50.281Z,4.55
2023-04-05T07:39:18.283Z,4.32
2023-04-05T07:41:45.797Z,3.80
2023-04-05T07:44:13.365Z,3.97
2023-04-05T07:46:46.860Z,4.97
2023-04-05T07:49:16.112Z,5.20
2023-04-05T07:51:43.774Z,4.18
2023-04-05T07:54:11.552Z,4.38
2023-04-05T07:56:39.066Z,4.35
2023-04-05T07:59:06.686Z,3.85
2023-04-05T08:01:34.199Z,3.40
2023-04-05T08:04:01.724Z,3.97
2023-04-05T08:06:29.234Z,2.75
2023-04-05T08:08:56.762Z,3.90
2023-04-05T08:11:24.344Z,3.75
2023-04-05T08:13:53.491Z,3.20
2023-04-05T08:16:21.238Z,3.65
2023-04-05T08:18:48.947Z,2.67
2023-04-05T08:21:16.646Z,3.75
2023-04-05T08:23:44.270Z,3.28
2023-04-05T08:26:11.756Z,2.80
2023-04-05T08:28:39.291Z,3.10
2023-04-05T08:31:06.875Z,2.75
2023-04-05T08:33:34.604Z,2.88
2023-04-05T08:36:10.162Z,2.25
2023-04-05T08:38:38.030Z,2.17
2023-04-05T08:41:15.420Z,2.58
2023-04-05T08:43:48.668Z,2.50
2023-04-05T08:46:17.488Z,2.35
2023-04-05T08:48:45.322Z,2.58
2023-04-05T08:51:13.099Z,1.88
2023-04-05T08:53:40.785Z,2.50
2023-04-05T08:56:10.396Z,2.15
2023-04-05T08:58:38.890Z,1.90
2023-04-05T09:01:07.799Z,2.25
2023-04-05T09:03:41.884Z,1.90
2023-04-05T09:06:12.022Z,2.05
2023-04-05T09:08:40.025Z,2.17
2023-04-05T09:11:07.661Z,2.17
2023-04-05T09:13:35.459Z,2.38
2023-04-05T09:16:03.145Z,1.70
2023-04-05T09:18:31.986Z,1.83
2023-04-05T09:21:06.672Z,2.10
2023-04-05T09:23:38.720Z,1.92
2023-04-05T09:26:24.215Z,2.55
2023-04-05T09:28:52.124Z,2.10
2023-04-05T09:31:36.206Z,2.55
2023-04-05T09:34:05.818Z,1.80
2023-04-05T09:36:36.656Z,2.38
2023-04-05T09:39:11.109Z,2.20
2023-04-05T09:41:39.442Z,2.38
2023-04-05T09:44:07.123Z,2.88
2023-04-05T09:46:38.204Z,2.53
2023-04-05T09:49:07.804Z,3.17
2023-04-05T09:51:37.796Z,2.35
2023-04-05T09:54:10.687Z,3.92
2023-04-05T09:56:42.782Z,2.47
2023-04-05T09:59:12.867Z,2.55
2023-04-05T10:01:45.399Z,3.03
2023-04-05T10:04:13.062Z,2.83
2023-04-05T10:06:42.524Z,3.30
2023-04-05T10:09:12.224Z,3.90
2023-04-05T10:11:40.144Z,2.38
2023-04-05T10:14:09.930Z,3.03
2023-04-05T10:17:13.549Z,3.00
2023-04-05T10:19:50.276Z,3.38
2023-04-05T10:22:34.326Z,4.38
2023-04-05T10:25:16.340Z,3.38
2023-04-05T10:27:51.002Z,2.75
2023-04-05T10:30:19.394Z,3.15
2023-04-05T10:33:14.709Z,4.45
2023-04-05T10:35:53.605Z,3.00
2023-04-05T10:38:31.204Z,3.42
2023-04-05T10:41:09.937Z,3.00
2023-04-05T10:43:40.289Z,3.25
2023-04-05T10:46:09.222Z,2.67
2023-04-05T10:48:58.701Z,2.78
2023-04-05T10:51:27.656Z,2.65
2023-04-05T10:53:57.297Z,2.88
2023-04-05T10:56:27.182Z,2.97
2023-04-05T10:58:56.681Z,3.17
2023-04-05T11:01:24.561Z,3.05
2023-04-05T11:03:54.901Z,2.80
2023-04-05T11:06:31.571Z,3.45
2023-04-05T11:09:12.186Z,3.25
2023-04-05T11:11:41.895Z,3.03
2023-04-05T11:14:37.381Z,3.03
2023-04-05T11:17:05.654Z,2.95
2023-04-05T11:19:48.089Z,4.03
2023-04-05T11:25:02.860Z,4.10
2023-04-05T11:27:37.296Z,3.28
2023-04-05T11:30:06.670Z,3.28
2023-04-05T11:32:44.650Z,2.70
2023-04-05T11:35:17.860Z,3.20
2023-04-05T11:37:56.124Z,2.83
2023-04-05T11:40:29.854Z,3.90
2023-04-05T11:43:05.928Z,3.00
2023-04-05T11:45:34.461Z,3.00
2023-04-05T11:48:07.002Z,3.45
2023-04-05T11:50:35.356Z,3.10
2023-04-05T11:53:17.043Z,3.53
2023-04-05T11:55:46.920Z,2.83
2023-04-05T11:58:21.385Z,3.72
2023-04-05T12:00:59.753Z,3.63
2023-04-05T12:03:28.944Z,3.33
2023-04-05T12:06:01.659Z,2.58
2023-04-05T12:08:43.484Z,3.30
2023-04-05T12:11:13.371Z,4.28
2023-04-05T12:13:41.122Z,3.63
2023-04-05T12:16:10.556Z,3.08
2023-04-05T12:18:38.745Z,3.40
2023-04-05T12:21:08.947Z,3.67
2023-04-05T12:23:38.215Z,3.63
2023-04-05T12:26:08.093Z,4.15
2023-04-05T12:28:56.203Z,4.32
2023-04-05T12:31:40.141Z,3.65
2023-04-05T12:34:08.301Z,3.65
2023-04-05T12:36:36.083Z,4.00
2023-04-05T12:39:09.171Z,4.53
2023-04-05T12:41:37.994Z,4.03
2023-04-05T12:44:28.894Z,3.00
2023-04-05T12:47:07.549Z,5.30
2023-04-05T12:49:41.046Z,4.35
2023-04-05T12:52:08.859Z,4.03
2023-04-05T12:54:36.394Z,4.95
2023-04-05T12:57:08.822Z,4.50
2023-04-05T12:59:36.632Z,3.63
2023-04-05T13:02:04.270Z,3.17
2023-04-05T13:04:31.816Z,3.72
2023-04-05T13:06:59.336Z,3.90
2023-04-05T13:09:26.942Z,4.28
2023-04-05T13:11:54.531Z,3.47
2023-04-05T13:14:22.011Z,3.97
2023-04-05T13:16:49.706Z,3.70
2023-04-05T13:19:17.184Z,4.03
2023-04-05T13:21:44.684Z,4.55
2023-04-05T13:24:12.979Z,4.88
2023-04-05T13:26:40.746Z,3.92
2023-04-05T13:29:08.512Z,4.38
2023-04-05T13:31:36.054Z,4.30
2023-04-05T13:34:03.613Z,3.90
2023-04-05T13:36:31.376Z,3.88
2023-04-05T13:38:58.970Z,4.45
2023-04-05T13:41:26.987Z,4.57
2023-04-05T13:43:54.517Z,4.32
2023-04-05T13:46:22.051Z,3.42
2023-04-05T13:48:49.601Z,3.20
2023-04-05T13:51:17.114Z,3.60
2023-04-05T13:53:44.738Z,4.25
2023-04-05T13:56:12.272Z,3.97
2023-04-05T13:58:39.945Z,4.25
2023-04-05T14:01:07.502Z,4.88
2023-04-05T14:03:35.187Z,4.22
2023-04-05T14:06:02.813Z,3.70
2023-04-05T14:08:30.405Z,5.35
2023-04-05T14:10:58.058Z,4.15
2023-04-05T14:13:25.733Z,5.60
2023-04-05T14:15:53.656Z,5.07
2023-04-05T14:18:21.241Z,5.03
2023-04-05T14:20:48.806Z,4.43
2023-04-05T14:23:16.377Z,4.57
2023-04-05T14:25:43.911Z,5.13
2023-04-05T14:28:11.646Z,5.10
2023-04-05T14:30:39.643Z,5.15
2023-04-05T14:33:07.372Z,4.40
2023-04-05T14:35:34.938Z,5.10
2023-04-05T14:38:02.466Z,4.00
2023-04-05T14:40:30.045Z,4.85
2023-04-05T14:42:57.641Z,5.50
2023-04-05T14:45:27.203Z,5.38
2023-04-05T14:47:55.447Z,5.32
2023-04-05T14:50:23.250Z,4.82
2023-04-05T14:52:51.067Z,5.15
2023-04-05T14:55:18.735Z,5.25
2023-04-05T14:57:46.333Z,5.90
2023-04-05T15:00:14.387Z,5.30
2023-04-05T15:02:42.246Z,5.07
2023-04-05T15:05:10.295Z,4.65
2023-04-05T15:07:37.850Z,3.85
2023-04-05T15:10:06.503Z,4.70
2023-04-05T15:12:34.147Z,4.53
2023-04-05T15:15:02.250Z,4.40
2023-04-05T15:17:30.183Z,5.53
2023-04-05T15:19:57.762Z,4.95
2023-04-05T15:22:25.470Z,4.88
2023-04-05T15:24:53.063Z,5.85
2023-04-05T15:27:21.005Z,4.72
2023-04-05T15:29:48.546Z,4.15
2023-04-05T15:32:17.065Z,4.57
2023-04-05T15:34:44.572Z,4.70
2023-04-05T15:37:12.125Z,5.00
2023-04-05T15:39:39.593Z,6.25
2023-04-05T15:42:07.180Z,5.38
2023-04-05T15:44:34.749Z,4.10
2023-04-05T15:47:03.650Z,5.63
2023-04-05T15:49:31.188Z,4.45
2023-04-05T15:52:00.437Z,5.55
2023-04-05T15:54:28.083Z,4.50
2023-04-05T15:56:56.693Z,4.15
2023-04-05T15:59:24.267Z,4.68
2023-04-05T16:01:51.879Z,4.05
2023-04-05T16:04:19.630Z,5.35
2023-04-05T16:06:47.571Z,5.13
2023-04-05T16:09:15.058Z,4.40
2023-04-05T16:11:42.634Z,4.15
2023-04-05T16:14:11.540Z,4.88
2023-04-05T16:16:52.465Z,4.45
2023-04-05T16:19:23.318Z,4.43
2023-04-05T16:21:52.618Z,4.93
2023-04-05T16:24:21.170Z,5.43
2023-04-05T16:26:48.761Z,5.32
2023-04-05T16:29:16.396Z,4.60
2023-04-05T16:31:47.293Z,5.25
2023-04-05T16:34:15.525Z,4.07
2023-04-05T16:36:43.135Z,5.13
2023-04-05T16:39:10.676Z,5.15
2023-04-05T16:41:38.203Z,4.72
2023-04-05T16:44:05.771Z,4.90
2023-04-05T16:46:33.588Z,4.88
2023-04-05T16:49:01.340Z,5.28
2023-04-05T16:51:29.707Z,5.13
2023-04-05T16:53:57.239Z,4.78
2023-04-05T16:56:24.688Z,4.25
2023-04-05T16:58:52.517Z,4.50
2023-04-05T17:01:20.408Z,7.13
2023-04-05T17:03:47.987Z,5.70
2023-04-05T17:06:16.209Z,5.35
2023-04-05T17:08:43.678Z,4.35
2023-04-05T17:11:11.591Z,4.38
2023-04-05T17:13:39.175Z,4.57
2023-04-05T17:16:07.589Z,4.72
2023-04-05T17:18:35.118Z,6.72
2023-04-05T17:21:02.634Z,4.88
2023-04-05T17:23:30.473Z,4.10
2023-04-05T17:25:58.100Z,5.60
2023-04-05T17:28:26.666Z,5.32
2023-04-05T17:30:54.248Z,5.47
2023-04-05T17:33:21.737Z,4.53
2023-04-05T17:35:49.292Z,5.13
2023-04-05T17:38:16.772Z,5.28
2023-04-05T17:40:44.321Z,4.20
2023-04-05T17:43:12.764Z,4.55
2023-04-05T17:45:40.568Z,4.32
2023-04-05T17:48:08.511Z,5.10
2023-04-05T17:50:38.095Z,4.28
2023-04-05T17:53:05.572Z,5.97
2023-04-05T17:55:34.400Z,5.18
2023-04-05T17:58:01.964Z,5.85
2023-04-05T18:00:29.664Z,5.20
2023-04-05T18:02:57.342Z,4.95
2023-04-05T18:05:25.973Z,4.13
2023-04-05T18:07:53.756Z,5.22
2023-04-05T18:10:23.405Z,4.63
2023-04-05T18:12:51.633Z,5.78
2023-04-05T18:15:19.369Z,4.93
2023-04-05T18:17:46.962Z,4.97
2023-04-05T18:20:14.522Z,5.45
2023-04-05T18:22:42.243Z,4.63
2023-04-05T18:25:11.825Z,4.65
2023-04-05T18:27:42.420Z,5.00
2023-04-05T18:30:11.747Z,5.90
2023-04-05T18:32:41.004Z,5.35
2023-04-05T18:35:10.188Z,5.35
2023-04-05T18:37:37.689Z,5.88
2023-04-05T18:40:05.932Z,5.25
2023-04-05T18:42:33.685Z,5.63
2023-04-05T18:45:01.506Z,5.60
2023-04-05T18:47:29.349Z,6.13
2023-04-05T18:49:56.887Z,5.57
2023-04-05T18:52:26.029Z,4.72
2023-04-05T18:54:58.263Z,5.65
2023-04-05T18:57:26.524Z,6.43
2023-04-05T18:59:54.047Z,6.80
2023-04-05T19:02:21.590Z,5.85
2023-04-05T19:04:49.160Z,6.95
2023-04-05T19:07:16.701Z,8.25
2023-04-05T19:09:44.228Z,7.85
2023-04-05T19:12:11.890Z,8.15
2023-04-05T19:14:39.381Z,6.78
2023-04-05T19:17:09.060Z,7.10
2023-04-05T19:19:37.033Z,7.38
2023-04-05T19:22:04.755Z,5.90
2023-04-05T19:24:32.405Z,7.32
2023-04-05T19:26:59.893Z,6.65
2023-04-05T19:29:27.429Z,5.18
2023-04-05T19:31:55.914Z,6.80
2023-04-05T19:34:23.490Z,6.68
2023-04-05T19:36:51.277Z,6.78
2023-04-05T19:39:18.875Z,6.43
2023-04-05T19:41:46.428Z,7.40
2023-04-05T19:44:14.207Z,9.23
2023-04-05T19:46:42.095Z,7.30
2023-04-05T19:49:12.229Z,7.80
2023-04-05T19:51:39.810Z,7.10
2023-04-05T19:54:14.627Z,7.20
2023-04-05T19:56:42.551Z,7.60
2023-04-05T19:59:22.074Z,8.65
2023-04-05T20:01:49.748Z,9.05
2023-04-05T20:04:19.660Z,9.02
2023-04-05T20:06:53.038Z,7.22
2023-04-05T20:09:26.157Z,7.75
2023-04-05T20:12:01.412Z,9.55
2023-04-05T20:14:37.028Z,8.55
2023-04-05T20:17:06.386Z,8.95
2023-04-05T20:19:33.971Z,6.85
2023-04-05T20:22:03.064Z,8.10
2023-04-05T20:24:30.677Z,8.45
2023-04-05T20:26:58.209Z,6.72
2023-04-05T20:29:27.587Z,8.82
2023-04-05T20:31:55.613Z,8.35
2023-04-05T20:34:31.870Z,7.97
2023-04-05T20:37:04.274Z,9.55
2023-04-05T20:42:00.226Z,7.75
2023-04-05T20:44:28.067Z,7.68
2023-04-05T20:46:57.655Z,7.85
2023-04-05T20:49:25.700Z,8.00
2023-04-05T20:51:54.802Z,9.60
2023-04-05T20:54:22.583Z,8.60
2023-04-05T20:56:50.176Z,9.05
2023-04-05T20:59:17.970Z,8.70
2023-04-05T21:01:47.397Z,8.52
2023-04-05T21:04:15.725Z,8.00
2023-04-05T21:06:43.218Z,9.15
2023-04-05T21:09:10.890Z,6.90
2023-04-05T21:11:38.562Z,9.23
2023-04-05T21:14:06.112Z,8.45
2023-04-05T21:16:33.667Z,8.05
2023-04-05T21:19:01.142Z,8.90
2023-04-05T21:21:28.619Z,9.38
2023-04-05T21:23:56.147Z,10.30
2023-04-05T21:26:23.594Z,10.05
2023-04-05T21:28:51.099Z,10.23
2023-04-05T21:31:18.588Z,8.63
2023-04-05T21:33:46.131Z,8.27
2023-04-05T21:36:14.183Z,9.23
2023-04-05T21:38:41.658Z,9.63
2023-04-05T21:41:09.152Z,8.65
2023-04-05T21:43:36.648Z,9.00
2023-04-05T21:46:04.141Z,8.32
2023-04-05T21:48:31.691Z,9.30
2023-04-05T21:50:59.131Z,9.88
2023-04-05T21:53:26.648Z,9.40
2023-04-05T21:55:54.368Z,9.57
2023-04-05T21:58:21.863Z,10.10
2023-04-05T22:00:49.456Z,9.80
2023-04-05T22:03:16.958Z,9.25
2023-04-05T22:05:44.484Z,10.45
2023-04-05T22:08:11.951Z,11.13
2023-04-05T22:10:39.769Z,9.88
2023-04-05T22:13:07.302Z,9.23
2023-04-05T22:15:34.778Z,10.27
2023-04-05T22:18:03.831Z,10.02
2023-04-05T22:20:31.464Z,10.50
2023-04-05T22:22:59.015Z,11.07
2023-04-05T22:25:26.903Z,10.85
2023-04-05T22:27:59.571Z,11.25
2023-04-05T22:30:28.967Z,13.00
2023-04-05T22:32:58.244Z,12.18
2023-04-05T22:35:25.950Z,11.75
2023-04-05T22:37:53.479Z,12.15
2023-04-05T22:40:26.249Z,10.27
2023-04-05T22:42:54.657Z,11.30
2023-04-05T22:45:22.146Z,11.65
2023-04-05T22:47:49.674Z,12.95
2023-04-05T22:50:17.496Z,13.10
2023-04-05T22:52:45.656Z,11.95
2023-04-05T22:55:13.722Z,11.35
2023-04-05T22:57:41.519Z,10.57
2023-04-05T23:00:09.829Z,13.98
2023-04-05T23:02:37.386Z,11.25
2023-04-05T23:05:05.222Z,10.77
2023-04-05T23:07:32.814Z,10.70
2023-04-05T23:10:00.504Z,11.57
2023-04-05T23:12:28.056Z,11.20
2023-04-05T23:14:56.418Z,11.75
2023-04-05T23:17:23.951Z,12.32
2023-04-05T23:19:51.507Z,11.27
2023-04-05T23:22:18.997Z,10.95
2023-04-05T23:24:46.640Z,11.00
2023-04-05T23:27:14.221Z,10.23
2023-04-05T23:29:41.697Z,10.68
2023-04-05T23:32:12.715Z,9.88
2023-04-05T23:34:40.660Z,10.85
2023-04-05T23:37:08.181Z,10.77
2023-04-05T23:39:35.682Z,11.02
2023-04-05T23:42:04.589Z,10.38
2023-04-05T23:44:32.134Z,10.25
2023-04-05T23:46:59.719Z,10.13
2023-04-05T23:49:28.089Z,9.80
2023-04-05T23:51:56.158Z,10.15
2023-04-05T23:54:23.776Z,10.68
2023-04-05T23:56:51.575Z,10.68
2023-04-05T23:59:19.128Z,11.73
